sensor_id;sensor_type;location;lat;lon;timestamp;pressure;altitude;pressure_sealevel;temperature
66113;BMP280;52893;52.870;5.822;2023-06-14T00:02:21;101671.94;;;18.74
66113;BMP280;52893;52.870;5.822;2023-06-14T00:04:48;101671.13;;;18.73
66113;BMP280;52893;52.870;5.822;2023-06-14T00:07:22;101670.72;;;18.71
66113;BMP280;52893;52.870;5.822;2023-06-14T00:10:00;101670.25;;;18.69
66113;BMP280;52893;52.870;5.822;2023-06-14T00:12:27;101670.13;;;18.62
66113;BMP280;52893;52.870;5.822;2023-06-14T00:14:55;101670.00;;;18.58
66113;BMP280;52893;52.870;5.822;2023-06-14T00:17:23;101677.81;;;18.53
66113;BMP280;52893;52.870;5.822;2023-06-14T00:19:50;101673.00;;;18.50
66113;BMP280;52893;52.870;5.822;2023-06-14T00:22:18;101683.16;;;18.46
66113;BMP280;52893;52.870;5.822;2023-06-14T00:24:46;101678.38;;;18.43
66113;BMP280;52893;52.870;5.822;2023-06-14T00:27:13;101673.56;;;18.40
66113;BMP280;52893;52.870;5.822;2023-06-14T00:29:40;101675.16;;;18.41
66113;BMP280;52893;52.870;5.822;2023-06-14T00:32:09;101679.09;;;18.40
66113;BMP280;52893;52.870;5.822;2023-06-14T00:34:36;101682.22;;;18.38
66113;BMP280;52893;52.870;5.822;2023-06-14T00:37:04;101677.84;;;18.37
66113;BMP280;52893;52.870;5.822;2023-06-14T00:39:32;101685.34;;;18.37
66113;BMP280;52893;52.870;5.822;2023-06-14T00:42:00;101685.34;;;18.37
66113;BMP280;52893;52.870;5.822;2023-06-14T00:44:27;101681.41;;;18.38
66113;BMP280;52893;52.870;5.822;2023-06-14T00:46:54;101682.22;;;18.38
66113;BMP280;52893;52.870;5.822;2023-06-14T00:49:24;101669.94;;;18.36
66113;BMP280;52893;52.870;5.822;2023-06-14T00:51:51;101677.00;;;18.33
66113;BMP280;52893;52.870;5.822;2023-06-14T00:54:18;101682.41;;;18.30
66113;BMP280;52893;52.870;5.822;2023-06-14T00:56:46;101681.97;;;18.28
66113;BMP280;52893;52.870;5.822;2023-06-14T00:59:13;101681.09;;;18.24
66113;BMP280;52893;52.870;5.822;2023-06-14T01:01:41;101679.03;;;18.21
66113;BMP280;52893;52.870;5.822;2023-06-14T01:04:08;101680.94;;;18.17
66113;BMP280;52893;52.870;5.822;2023-06-14T01:06:45;101670.13;;;18.11
66113;BMP280;52893;52.870;5.822;2023-06-14T01:09:23;101673.09;;;18.03
66113;BMP280;52893;52.870;5.822;2023-06-14T01:12:00;101673.44;;;18.01
66113;BMP280;52893;52.870;5.822;2023-06-14T01:14:28;101678.97;;;18.01
66113;BMP280;52893;52.870;5.822;2023-06-14T01:16:58;101676.59;;;18.00
66113;BMP280;52893;52.870;5.822;2023-06-14T01:19:26;101685.25;;;17.98
66113;BMP280;52893;52.870;5.822;2023-06-14T01:21:56;101679.97;;;17.93
66113;BMP280;52893;52.870;5.822;2023-06-14T01:24:24;101683.88;;;17.92
66113;BMP280;52893;52.870;5.822;2023-06-14T01:26:59;101683.38;;;17.87
66113;BMP280;52893;52.870;5.822;2023-06-14T01:29:28;101682.84;;;17.81
66113;BMP280;52893;52.870;5.822;2023-06-14T01:31:58;101679.97;;;17.78
66113;BMP280;52893;52.870;5.822;2023-06-14T01:34:30;101682.66;;;17.74
66113;BMP280;52893;52.870;5.822;2023-06-14T01:37:00;101686.94;;;17.72
66113;BMP280;52893;52.870;5.822;2023-06-14T01:39:30;101688.44;;;17.69
66113;BMP280;52893;52.870;5.822;2023-06-14T01:41:58;101687.81;;;17.60
66113;BMP280;52893;52.870;5.822;2023-06-14T01:44:27;101687.44;;;17.62
66113;BMP280;52893;52.870;5.822;2023-06-14T01:46:55;101692.91;;;17.58
66113;BMP280;52893;52.870;5.822;2023-06-14T01:49:23;101697.50;;;17.54
66113;BMP280;52893;52.870;5.822;2023-06-14T01:51:50;101690.28;;;17.49
66113;BMP280;52893;52.870;5.822;2023-06-14T01:54:17;101698.94;;;17.48
66113;BMP280;52893;52.870;5.822;2023-06-14T01:56:46;101694.56;;;17.47
66113;BMP280;52893;52.870;5.822;2023-06-14T01:59:13;101692.50;;;17.44
66113;BMP280;52893;52.870;5.822;2023-06-14T02:01:43;101698.38;;;17.42
66113;BMP280;52893;52.870;5.822;2023-06-14T02:04:12;101697.94;;;17.40
66113;BMP280;52893;52.870;5.822;2023-06-14T02:06:39;101690.38;;;17.37
66113;BMP280;52893;52.870;5.822;2023-06-14T02:09:06;101696.56;;;17.34
66113;BMP280;52893;52.870;5.822;2023-06-14T02:11:33;101684.31;;;17.32
66113;BMP280;52893;52.870;5.822;2023-06-14T02:14:02;101690.06;;;17.27
66113;BMP280;52893;52.870;5.822;2023-06-14T02:16:29;101693.63;;;17.27
66113;BMP280;52893;52.870;5.822;2023-06-14T02:18:56;101690.75;;;17.24
66113;BMP280;52893;52.870;5.822;2023-06-14T02:21:24;101695.75;;;17.18
66113;BMP280;52893;52.870;5.822;2023-06-14T02:23:51;101685.31;;;17.12
66113;BMP280;52893;52.870;5.822;2023-06-14T02:26:20;101688.78;;;17.09
66113;BMP280;52893;52.870;5.822;2023-06-14T02:28:48;101689.00;;;17.03
66113;BMP280;52893;52.870;5.822;2023-06-14T02:31:17;101694.09;;;17.01
66113;BMP280;52893;52.870;5.822;2023-06-14T02:33:44;101696.38;;;16.99
66113;BMP280;52893;52.870;5.822;2023-06-14T02:36:11;101692.03;;;16.98
66113;BMP280;52893;52.870;5.822;2023-06-14T02:38:38;101689.16;;;16.95
66113;BMP280;52893;52.870;5.822;2023-06-14T02:41:09;101694.09;;;16.89
66113;BMP280;52893;52.870;5.822;2023-06-14T02:43:36;101694.38;;;16.84
66113;BMP280;52893;52.870;5.822;2023-06-14T02:46:06;101691.84;;;16.79
66113;BMP280;52893;52.870;5.822;2023-06-14T02:48:34;101692.56;;;16.76
66113;BMP280;52893;52.870;5.822;2023-06-14T02:51:01;101696.69;;;16.70
66113;BMP280;52893;52.870;5.822;2023-06-14T02:53:29;101697.38;;;16.67
66113;BMP280;52893;52.870;5.822;2023-06-14T02:55:56;101697.66;;;16.62
66113;BMP280;52893;52.870;5.822;2023-06-14T02:58:24;101697.16;;;16.60
66113;BMP280;52893;52.870;5.822;2023-06-14T03:00:51;101701.06;;;16.59
66113;BMP280;52893;52.870;5.822;2023-06-14T03:03:19;101698.56;;;16.54
66113;BMP280;52893;52.870;5.822;2023-06-14T03:05:53;101698.38;;;16.47
66113;BMP280;52893;52.870;5.822;2023-06-14T03:08:24;101693.06;;;16.42
66113;BMP280;52893;52.870;5.822;2023-06-14T03:10:53;101700.41;;;16.38
66113;BMP280;52893;52.870;5.822;2023-06-14T03:13:23;101714.19;;;16.38
66113;BMP280;52893;52.870;5.822;2023-06-14T03:15:51;101715.34;;;16.37
66113;BMP280;52893;52.870;5.822;2023-06-14T03:18:20;101712.03;;;16.31
66113;BMP280;52893;52.870;5.822;2023-06-14T03:20:50;101718.31;;;16.32
66113;BMP280;52893;52.870;5.822;2023-06-14T03:23:19;101719.81;;;16.29
66113;BMP280;52893;52.870;5.822;2023-06-14T03:25:47;101711.91;;;16.28
66113;BMP280;52893;52.870;5.822;2023-06-14T03:28:15;101714.22;;;16.26
66113;BMP280;52893;52.870;5.822;2023-06-14T03:30:42;101719.72;;;16.26
66113;BMP280;52893;52.870;5.822;2023-06-14T03:33:09;101717.31;;;16.24
66113;BMP280;52893;52.870;5.822;2023-06-14T03:35:39;101721.09;;;16.20
66113;BMP280;52893;52.870;5.822;2023-06-14T03:38:08;101722.47;;;16.14
66113;BMP280;52893;52.870;5.822;2023-06-14T03:40:36;101733.47;;;16.14
66113;BMP280;52893;52.870;5.822;2023-06-14T03:43:06;101729.09;;;16.13
66113;BMP280;52893;52.870;5.822;2023-06-14T03:45:33;101739.22;;;16.09
66113;BMP280;52893;52.870;5.822;2023-06-14T03:48:00;101735.88;;;16.03
66113;BMP280;52893;52.870;5.822;2023-06-14T03:50:30;101736.69;;;16.03
66113;BMP280;52893;52.870;5.822;2023-06-14T03:52:58;101738.94;;;16.01
66113;BMP280;52893;52.870;5.822;2023-06-14T03:55:27;101743.31;;;16.02
66113;BMP280;52893;52.870;5.822;2023-06-14T03:57:59;101746.09;;;16.02
66113;BMP280;52893;52.870;5.822;2023-06-14T04:00:27;101747.22;;;16.01
66113;BMP280;52893;52.870;5.822;2023-06-14T04:02:54;101748.84;;;16.02
66113;BMP280;52893;52.870;5.822;2023-06-14T04:05:21;101752.72;;;16.01
66113;BMP280;52893;52.870;5.822;2023-06-14T04:07:53;101745.28;;;16.02
66113;BMP280;52893;52.870;5.822;2023-06-14T04:10:21;101746.56;;;16.05
66113;BMP280;52893;52.870;5.822;2023-06-14T04:12:48;101754.13;;;16.08
66113;BMP280;52893;52.870;5.822;2023-06-14T04:15:19;101758.94;;;16.11
66113;BMP280;52893;52.870;5.822;2023-06-14T04:17:46;101757.94;;;16.15
66113;BMP280;52893;52.870;5.822;2023-06-14T04:20:13;101767.78;;;16.16
66113;BMP280;52893;52.870;5.822;2023-06-14T04:22:41;101757.78;;;16.12
66113;BMP280;52893;52.870;5.822;2023-06-14T04:25:10;101702.88;;;15.70
66113;BMP280;52893;52.870;5.822;2023-06-14T04:27:38;101768.41;;;16.10
66113;BMP280;52893;52.870;5.822;2023-06-14T04:30:08;101764.44;;;16.11
66113;BMP280;52893;52.870;5.822;2023-06-14T04:32:41;101768.41;;;16.10
66113;BMP280;52893;52.870;5.822;2023-06-14T04:35:11;101767.34;;;16.14
66113;BMP280;52893;52.870;5.822;2023-06-14T04:37:42;101776.41;;;16.15
66113;BMP280;52893;52.870;5.822;2023-06-14T04:40:12;101778.50;;;16.18
66113;BMP280;52893;52.870;5.822;2023-06-14T04:42:40;101782.13;;;16.22
66113;BMP280;52893;52.870;5.822;2023-06-14T04:45:11;101781.81;;;16.23
66113;BMP280;52893;52.870;5.822;2023-06-14T04:47:41;101787.94;;;16.29
66113;BMP280;52893;52.870;5.822;2023-06-14T04:50:10;101792.50;;;16.37
66113;BMP280;52893;52.870;5.822;2023-06-14T04:52:39;101788.03;;;16.44
66113;BMP280;52893;52.870;5.822;2023-06-14T04:55:07;101797.22;;;16.61
66113;BMP280;52893;52.870;5.822;2023-06-14T04:57:35;101801.25;;;16.75
66113;BMP280;52893;52.870;5.822;2023-06-14T05:00:06;101803.19;;;16.87
66113;BMP280;52893;52.870;5.822;2023-06-14T05:02:34;101799.25;;;17.00
66113;BMP280;52893;52.870;5.822;2023-06-14T05:05:03;101793.16;;;17.06
66113;BMP280;52893;52.870;5.822;2023-06-14T05:07:33;101804.53;;;17.17
66113;BMP280;52893;52.870;5.822;2023-06-14T05:10:01;101797.00;;;17.30
66113;BMP280;52893;52.870;5.822;2023-06-14T05:12:28;101796.50;;;17.40
66113;BMP280;52893;52.870;5.822;2023-06-14T05:14:56;101799.13;;;17.48
66113;BMP280;52893;52.870;5.822;2023-06-14T05:17:24;101797.47;;;17.59
66113;BMP280;52893;52.870;5.822;2023-06-14T05:19:53;101797.66;;;17.67
66113;BMP280;52893;52.870;5.822;2023-06-14T05:22:23;101792.19;;;17.82
66113;BMP280;52893;52.870;5.822;2023-06-14T05:24:50;101796.00;;;17.93
66113;BMP280;52893;52.870;5.822;2023-06-14T05:27:17;101786.72;;;18.01
66113;BMP280;52893;52.870;5.822;2023-06-14T05:29:44;101798.97;;;18.16
66113;BMP280;52893;52.870;5.822;2023-06-14T05:32:11;101806.81;;;18.30
66113;BMP280;52893;52.870;5.822;2023-06-14T05:34:39;101807.06;;;18.40
66113;BMP280;52893;52.870;5.822;2023-06-14T05:37:06;101800.72;;;18.55
66113;BMP280;52893;52.870;5.822;2023-06-14T05:39:35;101809.28;;;18.66
66113;BMP280;52893;52.870;5.822;2023-06-14T05:42:03;101797.28;;;18.78
66113;BMP280;52893;52.870;5.822;2023-06-14T05:44:30;101795.22;;;18.90
66113;BMP280;52893;52.870;5.822;2023-06-14T05:46:57;101798.16;;;18.97
66113;BMP280;52893;52.870;5.822;2023-06-14T05:49:24;101793.88;;;19.03
66113;BMP280;52893;52.870;5.822;2023-06-14T05:51:51;101809.94;;;19.13
66113;BMP280;52893;52.870;5.822;2023-06-14T05:54:19;101807.03;;;19.26
66113;BMP280;52893;52.870;5.822;2023-06-14T05:56:47;101808.78;;;19.34
66113;BMP280;52893;52.870;5.822;2023-06-14T05:59:14;101795.44;;;19.39
66113;BMP280;52893;52.870;5.822;2023-06-14T06:01:42;101811.25;;;19.58
66113;BMP280;52893;52.870;5.822;2023-06-14T06:04:09;101805.91;;;19.68
66113;BMP280;52893;52.870;5.822;2023-06-14T06:06:36;101816.47;;;19.82
66113;BMP280;52893;52.870;5.822;2023-06-14T06:09:04;101819.41;;;19.93
66113;BMP280;52893;52.870;5.822;2023-06-14T06:11:31;101827.50;;;20.01
66113;BMP280;52893;52.870;5.822;2023-06-14T06:14:00;101822.16;;;20.12
66113;BMP280;52893;52.870;5.822;2023-06-14T06:16:27;101823.84;;;20.20
66113;BMP280;52893;52.870;5.822;2023-06-14T06:18:54;101820.81;;;20.28
66113;BMP280;52893;52.870;5.822;2023-06-14T06:21:21;101828.97;;;20.41
66113;BMP280;52893;52.870;5.822;2023-06-14T06:23:48;101837.81;;;20.50
66113;BMP280;52893;52.870;5.822;2023-06-14T06:26:16;101826.81;;;20.57
66113;BMP280;52893;52.870;5.822;2023-06-14T06:28:43;101837.59;;;20.62
66113;BMP280;52893;52.870;5.822;2023-06-14T06:31:11;101833.00;;;20.73
66113;BMP280;52893;52.870;5.822;2023-06-14T06:33:38;101834.69;;;20.81
66113;BMP280;52893;52.870;5.822;2023-06-14T06:36:06;101836.06;;;20.94
66113;BMP280;52893;52.870;5.822;2023-06-14T06:38:33;101833.00;;;21.03
66113;BMP280;52893;52.870;5.822;2023-06-14T06:41:01;101848.63;;;21.14
66113;BMP280;52893;52.870;5.822;2023-06-14T06:43:28;101841.19;;;21.22
66113;BMP280;52893;52.870;5.822;2023-06-14T06:45:57;101854.03;;;21.33
66113;BMP280;52893;52.870;5.822;2023-06-14T06:48:26;101849.81;;;21.46
66113;BMP280;52893;52.870;5.822;2023-06-14T06:50:53;101854.78;;;21.64
66113;BMP280;52893;52.870;5.822;2023-06-14T06:53:20;101862.78;;;21.72
66113;BMP280;52893;52.870;5.822;2023-06-14T06:55:48;101854.97;;;21.81
66113;BMP280;52893;52.870;5.822;2023-06-14T06:58:16;101857.44;;;21.93
66113;BMP280;52893;52.870;5.822;2023-06-14T07:00:43;101867.06;;;22.03
66113;BMP280;52893;52.870;5.822;2023-06-14T07:03:10;101871.91;;;22.09
66113;BMP280;52893;52.870;5.822;2023-06-14T07:05:39;101868.81;;;22.18
66113;BMP280;52893;52.870;5.822;2023-06-14T07:08:06;101875.63;;;22.31
66113;BMP280;52893;52.870;5.822;2023-06-14T07:10:34;101883.28;;;22.41
66113;BMP280;52893;52.870;5.822;2023-06-14T07:13:01;101881.75;;;22.51
66113;BMP280;52893;52.870;5.822;2023-06-14T07:15:29;101878.72;;;22.66
66113;BMP280;52893;52.870;5.822;2023-06-14T07:17:56;101875.59;;;22.79
66113;BMP280;52893;52.870;5.822;2023-06-14T07:20:25;101876.88;;;22.99
66113;BMP280;52893;52.870;5.822;2023-06-14T07:22:54;101879.72;;;23.13
66113;BMP280;52893;52.870;5.822;2023-06-14T07:25:21;101870.66;;;23.30
66113;BMP280;52893;52.870;5.822;2023-06-14T07:27:48;101878.25;;;23.47
66113;BMP280;52893;52.870;5.822;2023-06-14T07:30:16;101875.53;;;23.61
66113;BMP280;52893;52.870;5.822;2023-06-14T07:32:43;101871.97;;;23.82
66113;BMP280;52893;52.870;5.822;2023-06-14T07:35:10;101883.50;;;23.91
66113;BMP280;52893;52.870;5.822;2023-06-14T07:37:37;101877.94;;;24.02
66113;BMP280;52893;52.870;5.822;2023-06-14T07:40:07;101875.16;;;24.16
66113;BMP280;52893;52.870;5.822;2023-06-14T07:42:36;101879.94;;;24.36
66113;BMP280;52893;52.870;5.822;2023-06-14T07:45:04;101878.69;;;24.48
66113;BMP280;52893;52.870;5.822;2023-06-14T07:47:31;101887.44;;;24.57
66113;BMP280;52893;52.870;5.822;2023-06-14T07:49:59;101892.63;;;24.73
66113;BMP280;52893;52.870;5.822;2023-06-14T07:52:26;101895.78;;;24.78
66113;BMP280;52893;52.870;5.822;2023-06-14T07:54:53;101884.59;;;24.75
66113;BMP280;52893;52.870;5.822;2023-06-14T07:57:21;101895.41;;;24.76
66113;BMP280;52893;52.870;5.822;2023-06-14T07:59:49;101890.19;;;24.78
66113;BMP280;52893;52.870;5.822;2023-06-14T08:02:16;101896.97;;;24.77
66113;BMP280;52893;52.870;5.822;2023-06-14T08:04:43;101893.44;;;24.70
66113;BMP280;52893;52.870;5.822;2023-06-14T08:07:11;101899.78;;;24.70
66113;BMP280;52893;52.870;5.822;2023-06-14T08:09:38;101892.63;;;24.69
66113;BMP280;52893;52.870;5.822;2023-06-14T08:12:07;101894.25;;;24.63
66113;BMP280;52893;52.870;5.822;2023-06-14T08:14:37;101901.03;;;24.62
66113;BMP280;52893;52.870;5.822;2023-06-14T08:17:04;101901.41;;;24.64
66113;BMP280;52893;52.870;5.822;2023-06-14T08:19:31;101904.59;;;24.66
66113;BMP280;52893;52.870;5.822;2023-06-14T08:21:58;101895.81;;;24.68
66113;BMP280;52893;52.870;5.822;2023-06-14T08:24:25;101899.03;;;24.73
66113;BMP280;52893;52.870;5.822;2023-06-14T08:26:53;101888.59;;;24.81
66113;BMP280;52893;52.870;5.822;2023-06-14T08:29:20;101898.97;;;24.91
66113;BMP280;52893;52.870;5.822;2023-06-14T08:31:49;101882.13;;;24.94
66113;BMP280;52893;52.870;5.822;2023-06-14T08:34:16;101880.53;;;25.07
66113;BMP280;52893;52.870;5.822;2023-06-14T08:36:43;101881.22;;;25.22
66113;BMP280;52893;52.870;5.822;2023-06-14T08:39:10;101881.16;;;25.33
66113;BMP280;52893;52.870;5.822;2023-06-14T08:41:38;101893.91;;;25.41
66113;BMP280;52893;52.870;5.822;2023-06-14T08:44:05;101888.31;;;25.41
66113;BMP280;52893;52.870;5.822;2023-06-14T08:46:33;101888.31;;;25.41
66113;BMP280;52893;52.870;5.822;2023-06-14T08:49:03;101881.09;;;25.47
66113;BMP280;52893;52.870;5.822;2023-06-14T08:51:32;101888.22;;;25.58
66113;BMP280;52893;52.870;5.822;2023-06-14T08:54:02;101875.38;;;25.64
66113;BMP280;52893;52.870;5.822;2023-06-14T08:56:31;101892.81;;;25.82
66113;BMP280;52893;52.870;5.822;2023-06-14T08:59:00;101872.84;;;25.80
66113;BMP280;52893;52.870;5.822;2023-06-14T09:01:33;101885.09;;;26.01
66113;BMP280;52893;52.870;5.822;2023-06-14T09:04:00;101893.41;;;26.11
66113;BMP280;52893;52.870;5.822;2023-06-14T09:06:30;101897.28;;;26.24
66113;BMP280;52893;52.870;5.822;2023-06-14T09:08:58;101897.09;;;26.42
66113;BMP280;52893;52.870;5.822;2023-06-14T09:11:27;101894.59;;;26.51
66113;BMP280;52893;52.870;5.822;2023-06-14T09:13:54;101884.84;;;26.63
66113;BMP280;52893;52.870;5.822;2023-06-14T09:16:21;101888.66;;;26.79
66113;BMP280;52893;52.870;5.822;2023-06-14T09:18:49;101879.78;;;26.84
66113;BMP280;52893;52.870;5.822;2023-06-14T09:21:17;101881.47;;;26.78
66113;BMP280;52893;52.870;5.822;2023-06-14T09:23:47;101892.88;;;26.94
66113;BMP280;52893;52.870;5.822;2023-06-14T09:26:15;101885.00;;;27.12
66113;BMP280;52893;52.870;5.822;2023-06-14T09:28:43;101909.09;;;27.37
66113;BMP280;52893;52.870;5.822;2023-06-14T09:31:11;101889.41;;;27.40
66113;BMP280;52893;52.870;5.822;2023-06-14T09:33:41;101897.94;;;27.60
66113;BMP280;52893;52.870;5.822;2023-06-14T09:36:10;101894.47;;;27.75
66113;BMP280;52893;52.870;5.822;2023-06-14T09:38:39;101893.72;;;27.94
66113;BMP280;52893;52.870;5.822;2023-06-14T09:41:08;101885.06;;;28.09
66113;BMP280;52893;52.870;5.822;2023-06-14T09:43:36;101891.09;;;28.30
66113;BMP280;52893;52.870;5.822;2023-06-14T09:46:04;101886.31;;;28.27
66113;BMP280;52893;52.870;5.822;2023-06-14T09:48:32;101883.78;;;28.33
66113;BMP280;52893;52.870;5.822;2023-06-14T09:50:59;101898.19;;;28.35
66113;BMP280;52893;52.870;5.822;2023-06-14T09:53:29;101896.94;;;28.39
66113;BMP280;52893;52.870;5.822;2023-06-14T09:55:57;101889.53;;;28.49
66113;BMP280;52893;52.870;5.822;2023-06-14T09:58:27;101889.84;;;28.51
66113;BMP280;52893;52.870;5.822;2023-06-14T10:00:55;101894.53;;;28.77
66113;BMP280;52893;52.870;5.822;2023-06-14T10:03:26;101883.16;;;28.84
66113;BMP280;52893;52.870;5.822;2023-06-14T10:05:55;101900.22;;;28.93
66113;BMP280;52893;52.870;5.822;2023-06-14T10:08:27;101881.19;;;28.81
66113;BMP280;52893;52.870;5.822;2023-06-14T10:10:58;101894.84;;;28.99
66113;BMP280;52893;52.870;5.822;2023-06-14T10:13:28;101876.31;;;29.17
66113;BMP280;52893;52.870;5.822;2023-06-14T10:16:02;101889.56;;;29.36
66113;BMP280;52893;52.870;5.822;2023-06-14T10:18:38;101871.97;;;29.49
66113;BMP280;52893;52.870;5.822;2023-06-14T10:21:13;101874.06;;;29.77
66113;BMP280;52893;52.870;5.822;2023-06-14T10:23:45;101877.91;;;29.99
66113;BMP280;52893;52.870;5.822;2023-06-14T10:26:20;101879.78;;;30.18
66113;BMP280;52893;52.870;5.822;2023-06-14T10:29:00;101874.66;;;30.13
66113;BMP280;52893;52.870;5.822;2023-06-14T10:31:40;101877.56;;;30.26
66113;BMP280;52893;52.870;5.822;2023-06-14T10:34:08;101874.28;;;30.27
66113;BMP280;52893;52.870;5.822;2023-06-14T10:36:35;101871.97;;;30.51
66113;BMP280;52893;52.870;5.822;2023-06-14T10:39:07;101872.81;;;30.76
66113;BMP280;52893;52.870;5.822;2023-06-14T10:41:35;101878.19;;;30.58
66113;BMP280;52893;52.870;5.822;2023-06-14T10:47:07;101863.44;;;31.17
66113;BMP280;52893;52.870;5.822;2023-06-14T10:49:39;101835.94;;;30.83
66113;BMP280;52893;52.870;5.822;2023-06-14T10:52:12;101874.75;;;30.92
66113;BMP280;52893;52.870;5.822;2023-06-14T10:55:04;101872.59;;;30.83
66113;BMP280;52893;52.870;5.822;2023-06-14T10:57:32;101871.69;;;31.12
66113;BMP280;52893;52.870;5.822;2023-06-14T11:00:00;101861.19;;;31.12
66113;BMP280;52893;52.870;5.822;2023-06-14T11:05:49;101864.75;;;31.13
66113;BMP280;52893;52.870;5.822;2023-06-14T11:08:27;101851.53;;;31.47
66113;BMP280;52893;52.870;5.822;2023-06-14T11:10:59;101867.41;;;31.54
66113;BMP280;52893;52.870;5.822;2023-06-14T11:13:26;101867.34;;;31.45
66113;BMP280;52893;52.870;5.822;2023-06-14T11:15:54;101857.44;;;31.62
66113;BMP280;52893;52.870;5.822;2023-06-14T11:18:24;101860.97;;;31.66
66113;BMP280;52893;52.870;5.822;2023-06-14T11:20:54;101846.19;;;31.84
66113;BMP280;52893;52.870;5.822;2023-06-14T11:23:22;101839.13;;;31.88
66113;BMP280;52893;52.870;5.822;2023-06-14T11:25:50;101844.97;;;31.85
66113;BMP280;52893;52.870;5.822;2023-06-14T11:28:17;101847.19;;;31.68
66113;BMP280;52893;52.870;5.822;2023-06-14T11:30:45;101857.38;;;31.53
66113;BMP280;52893;52.870;5.822;2023-06-14T11:33:17;101858.47;;;31.21
66113;BMP280;52893;52.870;5.822;2023-06-14T11:35:44;101850.66;;;31.38
66113;BMP280;52893;52.870;5.822;2023-06-14T11:38:13;101848.81;;;31.44
66113;BMP280;52893;52.870;5.822;2023-06-14T11:40:40;101844.66;;;31.70
66113;BMP280;52893;52.870;5.822;2023-06-14T11:43:07;101842.56;;;31.83
66113;BMP280;52893;52.870;5.822;2023-06-14T11:45:34;101847.31;;;31.86
66113;BMP280;52893;52.870;5.822;2023-06-14T11:48:03;101843.41;;;31.71
66113;BMP280;52893;52.870;5.822;2023-06-14T11:50:30;101840.66;;;31.80
66113;BMP280;52893;52.870;5.822;2023-06-14T11:52:59;101841.00;;;31.82
66113;BMP280;52893;52.870;5.822;2023-06-14T11:55:35;101838.50;;;31.84
66113;BMP280;52893;52.870;5.822;2023-06-14T11:58:03;101840.72;;;31.89
66113;BMP280;52893;52.870;5.822;2023-06-14T12:00:30;101841.13;;;32.00
66113;BMP280;52893;52.870;5.822;2023-06-14T12:02:57;101837.84;;;32.23
66113;BMP280;52893;52.870;5.822;2023-06-14T12:05:25;101837.84;;;32.23
66113;BMP280;52893;52.870;5.822;2023-06-14T12:07:58;101836.59;;;32.24
66113;BMP280;52893;52.870;5.822;2023-06-14T12:10:26;101842.53;;;32.17
66113;BMP280;52893;52.870;5.822;2023-06-14T12:12:58;101835.31;;;32.25
66113;BMP280;52893;52.870;5.822;2023-06-14T12:15:28;101844.00;;;32.31
66113;BMP280;52893;52.870;5.822;2023-06-14T12:17:55;101835.31;;;32.25
66113;BMP280;52893;52.870;5.822;2023-06-14T12:20:22;101833.94;;;32.51
66113;BMP280;52893;52.870;5.822;2023-06-14T12:22:51;101839.91;;;32.63
66113;BMP280;52893;52.870;5.822;2023-06-14T12:25:27;101842.13;;;32.59
66113;BMP280;52893;52.870;5.822;2023-06-14T12:27:54;101838.69;;;32.73
66113;BMP280;52893;52.870;5.822;2023-06-14T12:30:23;101830.13;;;32.85
66113;BMP280;52893;52.870;5.822;2023-06-14T12:32:50;101833.69;;;32.77
66113;BMP280;52893;52.870;5.822;2023-06-14T12:35:18;101830.13;;;32.54
66113;BMP280;52893;52.870;5.822;2023-06-14T12:37:45;101828.50;;;32.35
66113;BMP280;52893;52.870;5.822;2023-06-14T12:40:13;101827.56;;;32.38
66113;BMP280;52893;52.870;5.822;2023-06-14T12:42:40;101831.25;;;32.26
66113;BMP280;52893;52.870;5.822;2023-06-14T12:45:08;101834.53;;;32.25
66113;BMP280;52893;52.870;5.822;2023-06-14T12:47:37;101832.44;;;32.16
66113;BMP280;52893;52.870;5.822;2023-06-14T12:50:06;101828.13;;;32.24
66113;BMP280;52893;52.870;5.822;2023-06-14T12:52:33;101831.25;;;32.26
66113;BMP280;52893;52.870;5.822;2023-06-14T12:55:03;101828.75;;;32.28
66113;BMP280;52893;52.870;5.822;2023-06-14T12:57:30;101843.59;;;32.41
66113;BMP280;52893;52.870;5.822;2023-06-14T13:00:00;101846.13;;;32.79
66113;BMP280;52893;52.870;5.822;2023-06-14T13:02:27;101839.91;;;32.63
66113;BMP280;52893;52.870;5.822;2023-06-14T13:04:56;101843.94;;;32.52
66113;BMP280;52893;52.870;5.822;2023-06-14T13:07:24;101839.72;;;32.57
66113;BMP280;52893;52.870;5.822;2023-06-14T13:09:51;101841.81;;;32.66
66113;BMP280;52893;52.870;5.822;2023-06-14T13:12:19;101837.78;;;32.76
66113;BMP280;52893;52.870;5.822;2023-06-14T13:14:46;101841.28;;;32.89
66113;BMP280;52893;52.870;5.822;2023-06-14T13:17:13;101840.97;;;32.87
66113;BMP280;52893;52.870;5.822;2023-06-14T13:19:40;101833.97;;;32.61
66113;BMP280;52893;52.870;5.822;2023-06-14T13:22:10;101827.47;;;32.51
66113;BMP280;52893;52.870;5.822;2023-06-14T13:24:37;101843.59;;;32.41
66113;BMP280;52893;52.870;5.822;2023-06-14T13:27:05;101851.22;;;32.63
66113;BMP280;52893;52.870;5.822;2023-06-14T13:29:32;101846.34;;;33.03
66113;BMP280;52893;52.870;5.822;2023-06-14T13:32:01;101848.28;;;33.24
66113;BMP280;52893;52.870;5.822;2023-06-14T13:34:28;101847.38;;;33.36
66113;BMP280;52893;52.870;5.822;2023-06-14T13:36:56;101846.38;;;33.30
66113;BMP280;52893;52.870;5.822;2023-06-14T13:39:26;101849.41;;;33.26
66113;BMP280;52893;52.870;5.822;2023-06-14T13:41:53;101855.34;;;33.28
66113;BMP280;52893;52.870;5.822;2023-06-14T13:44:20;101850.50;;;33.29
66113;BMP280;52893;52.870;5.822;2023-06-14T13:46:48;101847.97;;;33.31
66113;BMP280;52893;52.870;5.822;2023-06-14T13:49:16;101844.19;;;33.25
66113;BMP280;52893;52.870;5.822;2023-06-14T13:51:43;101838.56;;;33.43
66113;BMP280;52893;52.870;5.822;2023-06-14T13:54:12;101840.75;;;33.57
66113;BMP280;52893;52.870;5.822;2023-06-14T13:56:41;101836.66;;;33.67
66113;BMP280;52893;52.870;5.822;2023-06-14T13:59:08;101837.94;;;33.57
66113;BMP280;52893;52.870;5.822;2023-06-14T14:01:36;101840.13;;;33.26
66113;BMP280;52893;52.870;5.822;2023-06-14T14:04:04;101829.56;;;33.08
66113;BMP280;52893;52.870;5.822;2023-06-14T14:06:31;101831.28;;;33.06
66113;BMP280;52893;52.870;5.822;2023-06-14T14:08:59;101835.69;;;33.16
66113;BMP280;52893;52.870;5.822;2023-06-14T14:11:26;101829.13;;;33.46